createdAt,value
2019-01-10T00:00:23.636Z,-0.22
2019-01-10T00:02:53.897Z,-0.18
2019-01-10T00:05:22.536Z,-0.16
2019-01-10T00:07:51.186Z,-0.16
2019-01-10T00:10:19.999Z,-0.13
2019-01-10T00:12:48.759Z,-0.21
2019-01-10T00:15:17.591Z,-0.07
2019-01-10T00:17:46.291Z,-0.09
2019-01-10T00:20:15.015Z,-0.06
2019-01-10T00:22:43.675Z,-0.14
2019-01-10T00:25:12.711Z,-0.16
2019-01-10T00:27:41.434Z,-0.10
2019-01-10T00:30:11.618Z,-0.10
2019-01-10T00:32:40.251Z,-0.14
2019-01-10T00:35:09.215Z,-0.15
2019-01-10T00:37:37.862Z,-0.09
2019-01-10T00:40:07.378Z,-0.09
2019-01-10T00:42:36.338Z,-0.08
2019-01-10T00:45:05.988Z,-0.08
2019-01-10T00:47:34.644Z,-0.14
2019-01-10T00:50:03.302Z,-0.16
2019-01-10T00:52:31.954Z,-0.13
2019-01-10T00:55:00.586Z,-0.10
2019-01-10T00:57:29.218Z,-0.15
2019-01-10T00:59:57.881Z,-0.10
2019-01-10T01:02:26.520Z,-0.06
2019-01-10T01:04:55.163Z,-0.03
2019-01-10T01:07:23.818Z,-0.06
2019-01-10T01:09:52.488Z,-0.09
2019-01-10T01:12:21.127Z,-0.02
2019-01-10T01:14:50.210Z,-0.01
2019-01-10T01:17:18.847Z,-0.04
2019-01-10T01:19:47.483Z,-0.03
2019-01-10T01:22:16.137Z,-0.01
2019-01-10T01:24:44.771Z,0.06
2019-01-10T01:27:13.423Z,-0.02
2019-01-10T01:29:42.091Z,0.04
2019-01-10T01:32:10.727Z,0.01
2019-01-10T01:34:39.351Z,0.01
2019-01-10T01:37:08.003Z,0.06
2019-01-10T01:39:36.639Z,0.03
2019-01-10T01:42:05.338Z,0.11
2019-01-10T01:44:33.985Z,0.10
2019-01-10T01:47:02.613Z,0.17
2019-01-10T01:49:32.376Z,0.20
2019-01-10T01:52:01.014Z,0.24
2019-01-10T01:54:29.719Z,0.20
2019-01-10T01:56:58.362Z,0.24
2019-01-10T01:59:27.016Z,0.21
2019-01-10T02:01:55.630Z,0.23
2019-01-10T02:04:24.268Z,0.24
2019-01-10T02:06:52.907Z,0.25
2019-01-10T02:09:21.629Z,0.27
2019-01-10T02:11:50.268Z,0.29
2019-01-10T02:14:19.067Z,0.33
2019-01-10T02:16:47.707Z,0.29
2019-01-10T02:19:16.343Z,0.29
2019-01-10T02:21:45.759Z,0.29
2019-01-10T02:24:14.871Z,0.28
2019-01-10T02:26:43.511Z,0.29
2019-01-10T02:29:12.159Z,0.25
2019-01-10T02:31:40.812Z,0.18
2019-01-10T02:34:10.511Z,0.14
2019-01-10T02:36:39.503Z,0.21
2019-01-10T02:39:08.141Z,0.28
2019-01-10T02:41:36.847Z,0.25
2019-01-10T02:44:05.503Z,0.25
2019-01-10T02:46:34.130Z,0.28
2019-01-10T02:49:02.778Z,0.28
2019-01-10T02:51:31.435Z,0.30
2019-01-10T02:54:00.099Z,0.26
2019-01-10T02:56:29.080Z,0.26
2019-01-10T02:58:57.737Z,0.25
2019-01-10T03:01:26.449Z,0.25
2019-01-10T03:03:55.156Z,0.24
2019-01-10T03:06:24.112Z,0.27
2019-01-10T03:08:52.812Z,0.25
2019-01-10T03:11:21.450Z,0.23
2019-01-10T03:13:50.106Z,0.25
2019-01-10T03:16:19.076Z,0.23
2019-01-10T03:18:47.719Z,0.22
2019-01-10T03:21:16.456Z,0.16
2019-01-10T03:23:45.086Z,0.21
2019-01-10T03:26:13.770Z,0.24
2019-01-10T03:28:42.704Z,0.30
2019-01-10T03:31:11.345Z,0.25
2019-01-10T03:33:40.849Z,0.24
2019-01-10T03:36:09.920Z,0.26
2019-01-10T03:38:38.553Z,0.28
2019-01-10T03:41:07.181Z,0.26
2019-01-10T03:43:35.823Z,0.28
2019-01-10T03:46:05.611Z,0.28
2019-01-10T03:48:34.235Z,0.28
2019-01-10T03:51:02.884Z,0.27
2019-01-10T03:53:31.511Z,0.24
2019-01-10T03:56:00.154Z,0.20
2019-01-10T03:58:28.810Z,0.22
2019-01-10T04:00:57.450Z,0.25
2019-01-10T04:03:26.089Z,0.26
2019-01-10T04:05:54.736Z,0.26
2019-01-10T04:08:23.370Z,0.27
2019-01-10T04:10:52.986Z,0.28
2019-01-10T04:13:21.679Z,0.28
2019-01-10T04:15:50.305Z,0.28
2019-01-10T04:18:18.949Z,0.26
2019-01-10T04:20:47.597Z,0.29
2019-01-10T04:23:16.223Z,0.32
2019-01-10T04:25:44.869Z,0.30
2019-01-10T04:28:13.547Z,0.28
2019-01-10T04:30:42.179Z,0.30
2019-01-10T04:33:10.910Z,0.35
2019-01-10T04:35:39.647Z,0.35
2019-01-10T04:38:08.288Z,0.28
2019-01-10T04:40:36.919Z,0.34
2019-01-10T04:43:05.855Z,0.27
2019-01-10T04:45:34.494Z,0.29
2019-01-10T04:48:03.163Z,0.29
2019-01-10T04:50:32.595Z,0.29
2019-01-10T04:53:01.233Z,0.29
2019-01-10T04:55:29.875Z,0.34
2019-01-10T04:57:58.976Z,0.35
2019-01-10T05:00:27.996Z,0.35
2019-01-10T05:02:56.669Z,0.31
2019-01-10T05:05:25.308Z,0.34
2019-01-10T05:07:53.944Z,0.38
2019-01-10T05:10:22.576Z,0.40
2019-01-10T05:12:51.784Z,0.36
2019-01-10T05:15:20.417Z,0.39
2019-01-10T05:17:49.483Z,0.40
2019-01-10T05:20:19.032Z,0.44
2019-01-10T05:22:47.872Z,0.45
2019-01-10T05:25:17.666Z,0.43
2019-01-10T05:27:46.320Z,0.44
2019-01-10T05:30:17.001Z,0.45
2019-01-10T05:32:45.749Z,0.44
2019-01-10T05:35:14.416Z,0.43
2019-01-10T05:37:43.199Z,0.57
2019-01-10T05:40:11.982Z,0.55
2019-01-10T05:42:40.631Z,0.61
2019-01-10T05:45:10.181Z,0.70
2019-01-10T05:47:38.934Z,0.69
2019-01-10T05:50:08.665Z,0.71
2019-01-10T05:52:37.454Z,0.72
2019-01-10T05:55:07.179Z,0.70
2019-01-10T05:57:36.061Z,0.70
2019-01-10T06:00:05.565Z,0.70
2019-01-10T06:02:34.375Z,0.67
2019-01-10T06:05:03.219Z,0.70
2019-01-10T06:07:31.879Z,0.66
2019-01-10T06:10:00.563Z,0.63
2019-01-10T06:12:30.008Z,0.62
2019-01-10T06:14:58.972Z,0.63
2019-01-10T06:17:27.688Z,0.57
2019-01-10T06:19:56.360Z,0.59
2019-01-10T06:22:25.133Z,0.58
2019-01-10T06:24:53.896Z,0.54
2019-01-10T06:27:22.552Z,0.59
2019-01-10T06:29:51.231Z,0.59
2019-01-10T06:32:19.917Z,0.60
2019-01-10T06:34:48.595Z,0.58
2019-01-10T06:37:17.343Z,0.57
2019-01-10T06:39:46.352Z,0.61
2019-01-10T06:42:15.023Z,0.55
2019-01-10T06:44:44.681Z,0.58
2019-01-10T06:47:15.144Z,0.62
2019-01-10T06:49:43.811Z,0.58
2019-01-10T06:52:12.971Z,0.62
2019-01-10T06:54:41.687Z,0.61
2019-01-10T06:57:10.430Z,0.57
2019-01-10T06:59:39.501Z,0.60
2019-01-10T07:02:08.249Z,0.61
2019-01-10T07:04:36.980Z,0.59
2019-01-10T07:07:05.634Z,0.60
2019-01-10T07:09:34.274Z,0.57
2019-01-10T07:12:02.899Z,0.61
2019-01-10T07:14:31.606Z,0.61
2019-01-10T07:17:00.540Z,0.68
2019-01-10T07:19:45.450Z,0.66
2019-01-10T07:22:15.009Z,0.58
2019-01-10T07:24:50.980Z,0.62
2019-01-10T07:27:19.610Z,0.65
2019-01-10T07:29:52.771Z,0.68
2019-01-10T07:32:21.402Z,0.66
2019-01-10T07:34:50.408Z,0.69
2019-01-10T07:37:19.060Z,0.75
2019-01-10T07:39:47.699Z,0.73
2019-01-10T07:42:16.332Z,0.72
2019-01-10T07:44:44.976Z,0.75
2019-01-10T07:47:13.895Z,0.82
2019-01-10T07:49:42.704Z,0.82
2019-01-10T07:52:11.397Z,0.91
2019-01-10T07:54:40.019Z,0.90
2019-01-10T07:57:08.820Z,0.93
2019-01-10T07:59:37.543Z,0.92
2019-01-10T08:02:06.175Z,0.98
2019-01-10T08:04:34.830Z,1.02
2019-01-10T08:07:03.470Z,1.05
2019-01-10T08:09:32.101Z,1.14
2019-01-10T08:12:00.941Z,1.19
2019-01-10T08:14:32.788Z,1.21
2019-01-10T08:17:01.419Z,1.32
2019-01-10T08:19:30.146Z,1.36
2019-01-10T08:21:58.798Z,1.41
2019-01-10T08:24:27.444Z,1.46
2019-01-10T08:26:56.089Z,1.50
2019-01-10T08:29:24.756Z,1.51
2019-01-10T08:31:53.751Z,1.49
2019-01-10T08:34:23.576Z,1.52
2019-01-10T08:36:52.222Z,1.53
2019-01-10T08:39:20.876Z,1.47
2019-01-10T08:41:49.554Z,1.50
2019-01-10T08:44:18.295Z,1.45
2019-01-10T08:46:47.024Z,1.37
2019-01-10T08:49:15.947Z,1.39
2019-01-10T08:51:44.615Z,1.48
2019-01-10T08:54:13.359Z,1.42
2019-01-10T08:56:41.991Z,1.66
2019-01-10T08:59:10.641Z,1.77
2019-01-10T09:01:39.554Z,1.81
2019-01-10T09:04:08.172Z,2.02
2019-01-10T09:06:36.809Z,2.20
2019-01-10T09:09:07.320Z,2.26
2019-01-10T09:11:35.943Z,2.34
2019-01-10T09:14:04.764Z,2.48
2019-01-10T09:16:33.538Z,2.61
2019-01-10T09:19:02.528Z,2.66
2019-01-10T09:21:31.195Z,2.66
2019-01-10T09:24:00.019Z,2.83
2019-01-10T09:26:37.514Z,2.67
2019-01-10T09:28:59.197Z,2.92
2019-01-10T09:31:27.902Z,2.95
2019-01-10T09:33:58.091Z,2.96
2019-01-10T09:36:26.932Z,2.60
2019-01-10T09:38:55.557Z,2.78
2019-01-10T09:41:24.218Z,2.97
2019-01-10T09:43:52.856Z,3.07
2019-01-10T09:46:21.487Z,2.89
2019-01-10T09:48:50.152Z,2.59
2019-01-10T09:51:18.886Z,2.61
2019-01-10T09:53:47.563Z,2.62
2019-01-10T09:56:16.201Z,2.73
2019-01-10T09:58:44.854Z,2.89
2019-01-10T10:01:13.535Z,2.93
2019-01-10T10:03:42.193Z,2.87
2019-01-10T10:06:10.845Z,3.05
2019-01-10T10:08:39.520Z,3.17
2019-01-10T10:11:08.557Z,3.09
2019-01-10T10:13:37.208Z,3.19
2019-01-10T10:16:05.845Z,3.32
2019-01-10T10:18:34.479Z,3.20
2019-01-10T10:21:03.186Z,3.20
2019-01-10T10:23:31.803Z,3.17
2019-01-10T10:26:00.489Z,3.36
2019-01-10T10:28:29.471Z,3.38
2019-01-10T10:30:58.131Z,3.46
2019-01-10T10:33:26.767Z,3.38
2019-01-10T10:35:55.416Z,3.63
2019-01-10T10:38:24.412Z,3.79
2019-01-10T10:40:53.044Z,3.85
2019-01-10T10:43:21.716Z,4.11
2019-01-10T10:45:50.416Z,4.39
2019-01-10T10:48:19.058Z,4.31
2019-01-10T10:50:47.839Z,3.97
2019-01-10T10:53:16.478Z,4.33
2019-01-10T10:55:45.234Z,4.44
2019-01-10T10:58:14.112Z,4.34
2019-01-10T11:00:42.818Z,4.54
2019-01-10T11:03:11.876Z,4.17
2019-01-10T11:05:40.646Z,4.46
2019-01-10T11:08:09.565Z,4.15
2019-01-10T11:10:38.280Z,3.98
2019-01-10T11:13:07.072Z,3.66
2019-01-10T11:15:35.706Z,3.98
2019-01-10T11:18:04.416Z,3.60
2019-01-10T11:20:33.419Z,3.54
2019-01-10T11:23:10.147Z,3.60
2019-01-10T11:25:32.519Z,3.62
2019-01-10T11:28:01.235Z,3.30
2019-01-10T11:30:29.864Z,3.43
2019-01-10T11:32:58.513Z,3.28
2019-01-10T11:35:27.231Z,3.60
2019-01-10T11:37:55.949Z,3.54
2019-01-10T11:40:24.603Z,3.52
2019-01-10T11:42:53.222Z,3.51
2019-01-10T11:45:23.089Z,3.49
2019-01-10T11:47:51.816Z,3.35
2019-01-10T11:50:20.868Z,3.20
2019-01-10T11:52:49.820Z,3.20
2019-01-10T11:55:18.464Z,3.47
2019-01-10T11:57:47.171Z,3.27
2019-01-10T12:00:20.188Z,3.23
2019-01-10T12:02:48.842Z,3.15
2019-01-10T12:05:17.560Z,3.15
2019-01-10T12:07:46.237Z,3.16
2019-01-10T12:10:14.881Z,3.06
2019-01-10T12:12:44.075Z,3.06
2019-01-10T12:15:12.810Z,2.94
2019-01-10T12:17:41.444Z,2.89
2019-01-10T12:20:10.768Z,2.80
2019-01-10T12:22:39.419Z,2.71
2019-01-10T12:25:09.371Z,2.85
2019-01-10T12:27:38.319Z,2.89
2019-01-10T12:30:08.376Z,2.89
2019-01-10T12:32:37.022Z,2.93
2019-01-10T12:35:05.841Z,3.00
2019-01-10T12:37:34.484Z,2.95
2019-01-10T12:40:03.123Z,2.81
2019-01-10T12:42:31.929Z,3.06
2019-01-10T12:45:00.547Z,2.94
2019-01-10T12:47:29.187Z,2.98
2019-01-10T12:49:57.815Z,2.99
2019-01-10T12:52:34.837Z,3.02
2019-01-10T12:54:56.870Z,2.89
2019-01-10T12:57:25.603Z,2.97
2019-01-10T12:59:54.235Z,2.76
2019-01-10T13:02:22.938Z,2.76
2019-01-10T13:04:51.582Z,2.75
2019-01-10T13:07:20.386Z,2.78
2019-01-10T13:09:49.032Z,2.70
2019-01-10T13:12:17.684Z,2.88
2019-01-10T13:14:46.316Z,3.19
2019-01-10T13:17:14.946Z,3.05
2019-01-10T13:19:43.592Z,2.52
2019-01-10T13:22:12.291Z,2.54
2019-01-10T13:24:40.930Z,2.31
2019-01-10T13:27:09.577Z,2.00
2019-01-10T13:29:38.272Z,1.94
2019-01-10T13:32:07.080Z,1.95
2019-01-10T13:34:36.270Z,2.02
2019-01-10T13:37:05.103Z,2.08
2019-01-10T13:39:33.891Z,2.16
2019-01-10T13:42:02.539Z,2.23
2019-01-10T13:44:31.251Z,2.23
2019-01-10T13:46:59.887Z,2.21
2019-01-10T13:49:28.533Z,2.19
2019-01-10T13:51:57.163Z,2.26
2019-01-10T13:54:25.943Z,2.38
2019-01-10T13:56:54.583Z,2.60
2019-01-10T13:59:23.792Z,2.59
2019-01-10T14:01:52.544Z,2.57
2019-01-10T14:04:21.178Z,2.58
2019-01-10T14:06:49.874Z,2.48
2019-01-10T14:09:18.514Z,2.49
2019-01-10T14:11:47.382Z,2.44
2019-01-10T14:14:16.047Z,2.35
2019-01-10T14:16:44.674Z,2.27
2019-01-10T14:19:13.320Z,2.31
2019-01-10T14:21:46.594Z,2.28
2019-01-10T14:24:12.284Z,2.28
2019-01-10T14:26:41.277Z,2.33
2019-01-10T14:29:09.905Z,2.36
2019-01-10T14:31:38.536Z,2.36
2019-01-10T14:34:13.980Z,2.22
2019-01-10T14:36:38.695Z,2.33
2019-01-10T14:39:08.407Z,2.19
2019-01-10T14:41:37.076Z,2.14
2019-01-10T14:44:05.713Z,2.08
2019-01-10T14:46:34.367Z,2.09
2019-01-10T14:49:02.999Z,1.96
2019-01-10T14:51:31.633Z,1.96
2019-01-10T14:54:00.393Z,1.92
2019-01-10T14:56:29.034Z,1.93
2019-01-10T14:58:57.679Z,1.85
2019-01-10T15:01:26.335Z,1.88
2019-01-10T15:03:54.973Z,1.79
2019-01-10T15:06:23.967Z,1.81
2019-01-10T15:08:52.607Z,1.72
2019-01-10T15:11:21.238Z,1.71
2019-01-10T15:13:49.878Z,1.66
2019-01-10T15:16:18.525Z,1.62
2019-01-10T15:18:47.166Z,1.57
2019-01-10T15:21:15.815Z,1.54
2019-01-10T15:23:44.450Z,1.45
2019-01-10T15:26:13.391Z,1.41
2019-01-10T15:28:42.814Z,1.44
2019-01-10T15:31:11.693Z,1.35
2019-01-10T15:33:42.439Z,1.34
2019-01-10T15:36:11.206Z,1.38
2019-01-10T15:38:40.619Z,1.32
2019-01-10T15:41:09.245Z,1.25
2019-01-10T15:43:37.890Z,1.19
2019-01-10T15:46:06.511Z,1.20
2019-01-10T15:48:35.503Z,1.12
2019-01-10T15:51:04.231Z,1.09
2019-01-10T15:53:32.876Z,1.11
2019-01-10T15:56:01.519Z,1.09
2019-01-10T15:58:30.181Z,1.07
2019-01-10T16:00:58.822Z,1.04
2019-01-10T16:03:27.533Z,1.06
2019-01-10T16:05:56.349Z,1.00
2019-01-10T16:08:24.978Z,1.01
2019-01-10T16:10:53.608Z,1.06
2019-01-10T16:13:22.259Z,1.05
2019-01-10T16:15:50.920Z,0.98
2019-01-10T16:18:19.550Z,0.91
2019-01-10T16:20:48.202Z,0.88
2019-01-10T16:23:16.846Z,0.85
2019-01-10T16:25:45.506Z,0.83
2019-01-10T16:28:14.169Z,0.85
2019-01-10T16:30:42.887Z,0.90
2019-01-10T16:33:11.857Z,0.83
2019-01-10T16:35:40.941Z,0.89
2019-01-10T16:38:09.576Z,0.76
2019-01-10T16:40:38.507Z,0.77
2019-01-10T16:43:11.864Z,0.82
2019-01-10T16:45:38.724Z,0.73
2019-01-10T16:48:07.353Z,0.78
2019-01-10T16:50:36.047Z,0.74
2019-01-10T16:53:04.767Z,0.79
2019-01-10T16:55:34.165Z,0.75
2019-01-10T16:58:03.317Z,0.78
2019-01-10T17:00:32.763Z,0.74
2019-01-10T17:03:01.503Z,0.71
2019-01-10T17:05:30.136Z,0.70
2019-01-10T17:07:58.774Z,0.63
2019-01-10T17:10:27.442Z,0.65
2019-01-10T17:12:56.150Z,0.67
2019-01-10T17:15:24.815Z,0.68
2019-01-10T17:17:53.591Z,0.66
2019-01-10T17:20:23.128Z,0.55
2019-01-10T17:22:51.795Z,0.56
2019-01-10T17:25:20.584Z,0.54
2019-01-10T17:27:49.326Z,0.65
2019-01-10T17:30:28.022Z,0.58
2019-01-10T17:32:56.732Z,0.55
2019-01-10T17:35:26.637Z,0.59
2019-01-10T17:37:55.635Z,0.57
2019-01-10T17:40:24.412Z,0.52
2019-01-10T17:42:53.600Z,0.46
2019-01-10T17:45:23.428Z,0.51
2019-01-10T17:47:52.575Z,0.51
2019-01-10T17:50:21.400Z,0.47
2019-01-10T17:52:50.203Z,0.44
2019-01-10T17:55:18.939Z,0.36
2019-01-10T17:57:48.119Z,0.36
2019-01-10T18:00:18.507Z,0.38
2019-01-10T18:02:47.439Z,0.47
2019-01-10T18:05:16.204Z,0.55
2019-01-10T18:07:45.219Z,0.59
2019-01-10T18:10:14.959Z,0.52
2019-01-10T18:12:44.880Z,0.38
2019-01-10T18:15:14.594Z,0.41
2019-01-10T18:17:43.254Z,0.38
2019-01-10T18:20:13.800Z,0.34
2019-01-10T18:22:42.440Z,0.32
2019-01-10T18:25:11.327Z,0.27
2019-01-10T18:27:40.479Z,0.37
2019-01-10T18:30:11.598Z,0.41
2019-01-10T18:32:40.358Z,0.42
2019-01-10T18:35:09.882Z,0.37
2019-01-10T18:37:38.682Z,0.33
2019-01-10T18:40:07.944Z,0.31
2019-01-10T18:42:36.678Z,0.27
2019-01-10T18:45:05.780Z,0.26
2019-01-10T18:47:34.778Z,0.29
2019-01-10T18:50:03.898Z,0.33
2019-01-10T18:52:32.640Z,0.31
2019-01-10T18:55:01.293Z,0.14
2019-01-10T18:57:30.057Z,0.09
2019-01-10T18:59:59.898Z,0.06
2019-01-10T19:02:28.748Z,-0.02
2019-01-10T19:04:57.398Z,0.01
2019-01-10T19:07:26.133Z,-0.05
2019-01-10T19:09:54.795Z,-0.18
2019-01-10T19:12:23.567Z,-0.19
2019-01-10T19:14:52.390Z,-0.21
2019-01-10T19:17:26.054Z,-0.26
2019-01-10T19:19:51.503Z,-0.24
2019-01-10T19:22:20.451Z,-0.28
2019-01-10T19:24:49.287Z,-0.33
2019-01-10T19:27:18.135Z,-0.39
2019-01-10T19:29:46.875Z,-0.36
2019-01-10T19:32:15.594Z,-0.49
2019-01-10T19:34:44.446Z,-0.48
2019-01-10T19:37:13.382Z,-0.52
2019-01-10T19:39:42.030Z,-0.62
2019-01-10T19:42:12.715Z,-0.67
2019-01-10T19:44:41.194Z,-0.77
2019-01-10T19:47:09.920Z,-0.83
2019-01-10T19:49:38.626Z,-0.74
2019-01-10T19:52:07.284Z,-0.67
2019-01-10T19:54:36.034Z,-0.67
2019-01-10T19:57:04.766Z,-0.68
2019-01-10T19:59:33.632Z,-0.63
2019-01-10T20:02:02.623Z,-0.58
2019-01-10T20:04:31.328Z,-0.55
2019-01-10T20:06:59.999Z,-0.64
2019-01-10T20:09:30.092Z,-0.66
2019-01-10T20:11:59.476Z,-0.66
2019-01-10T20:14:28.369Z,-0.64
2019-01-10T20:16:57.042Z,-0.64
2019-01-10T20:19:25.719Z,-0.68
2019-01-10T20:21:54.675Z,-0.71
2019-01-10T20:24:23.465Z,-0.69
2019-01-10T20:26:52.508Z,-0.78
2019-01-10T20:29:22.127Z,-0.78
2019-01-10T20:31:51.059Z,-0.77
2019-01-10T20:34:20.006Z,-0.79
2019-01-10T20:36:48.715Z,-0.84
2019-01-10T20:39:18.065Z,-0.89
2019-01-10T20:41:47.139Z,-0.98
2019-01-10T20:44:16.918Z,-1.01
2019-01-10T20:46:45.924Z,-1.07
2019-01-10T20:49:14.648Z,-1.07
2019-01-10T20:51:43.729Z,-1.08
2019-01-10T20:54:12.620Z,-1.05
2019-01-10T20:56:41.650Z,-1.04
2019-01-10T20:59:10.592Z,-1.07
2019-01-10T21:01:39.252Z,-1.03
2019-01-10T21:04:07.907Z,-1.05
2019-01-10T21:06:37.210Z,-1.12
2019-01-10T21:09:12.842Z,-1.13
2019-01-10T21:11:37.996Z,-1.15
2019-01-10T21:14:06.645Z,-1.18
2019-01-10T21:16:35.375Z,-1.24
2019-01-10T21:19:04.567Z,-1.27
2019-01-10T21:21:33.445Z,-1.28
2019-01-10T21:24:02.361Z,-1.32
2019-01-10T21:26:31.135Z,-1.37
2019-01-10T21:29:00.095Z,-1.41
2019-01-10T21:31:29.179Z,-1.46
2019-01-10T21:33:59.887Z,-1.50
2019-01-10T21:36:28.788Z,-1.50
2019-01-10T21:38:58.022Z,-1.49
2019-01-10T21:41:27.879Z,-1.56
2019-01-10T21:43:57.617Z,-1.54
2019-01-10T21:46:26.667Z,-1.58
2019-01-10T21:48:55.651Z,-1.59
2019-01-10T21:51:24.370Z,-1.56
2019-01-10T21:53:54.542Z,-1.64
2019-01-10T21:56:24.654Z,-1.36
2019-01-10T21:58:53.368Z,-1.42
2019-01-10T22:01:22.082Z,-1.45
2019-01-10T22:03:50.746Z,-1.47
2019-01-10T22:06:19.494Z,-1.42
2019-01-10T22:08:48.129Z,-1.44
2019-01-10T22:11:16.816Z,-1.45
2019-01-10T22:13:45.940Z,-1.44
2019-01-10T22:16:14.580Z,-1.44
2019-01-10T22:18:43.312Z,-1.48
2019-01-10T22:21:11.972Z,-1.41
2019-01-10T22:23:40.655Z,-1.42
2019-01-10T22:26:09.784Z,-1.43
2019-01-10T22:28:38.576Z,-1.51
2019-01-10T22:31:08.195Z,-1.53
2019-01-10T22:33:37.189Z,-1.52
2019-01-10T22:36:06.023Z,-1.60
2019-01-10T22:38:34.662Z,-1.61
2019-01-10T22:41:03.323Z,-1.73
2019-01-10T22:43:31.961Z,-1.73
2019-01-10T22:46:00.917Z,-1.76
2019-01-10T22:48:29.657Z,-1.78
2019-01-10T22:50:58.306Z,-1.74
2019-01-10T22:53:26.950Z,-1.70
2019-01-10T22:55:55.978Z,-1.70
2019-01-10T22:58:24.998Z,-1.59
2019-01-10T23:01:11.300Z,-1.64
2019-01-10T23:03:41.701Z,-1.62
2019-01-10T23:06:10.420Z,-1.67
2019-01-10T23:08:42.667Z,-1.61
2019-01-10T23:11:18.636Z,-1.57
2019-01-10T23:14:03.297Z,-1.56
2019-01-10T23:16:32.976Z,-1.57
2019-01-10T23:19:01.796Z,-1.57
2019-01-10T23:21:31.498Z,-1.55
2019-01-10T23:24:07.459Z,-1.51
2019-01-10T23:26:36.215Z,-1.49
2019-01-10T23:29:04.994Z,-1.51
2019-01-10T23:31:33.649Z,-1.53
2019-01-10T23:34:07.375Z,-1.54
2019-01-10T23:36:36.047Z,-1.55
2019-01-10T23:39:15.145Z,-1.58
2019-01-10T23:41:43.991Z,-1.55
2019-01-10T23:44:12.645Z,-1.57
2019-01-10T23:46:41.345Z,-1.59
2019-01-10T23:49:10.061Z,-1.54
2019-01-10T23:51:39.095Z,-1.58
2019-01-10T23:54:07.807Z,-1.55
2019-01-10T23:56:36.500Z,-1.60
2019-01-10T23:59:06.188Z,-1.62
